sensor_id;sensor_type;location;lat;lon;timestamp;P1;durP1;ratioP1;P2;durP2;ratioP2
4102;SDS011;2065;49.790;9.620;2022-10-12T00:01:28;5.10;;;3.50;;
4102;SDS011;2065;49.790;9.620;2022-10-12T00:03:55;8.50;;;2.87;;
4102;SDS011;2065;49.790;9.620;2022-10-12T00:06:22;5.27;;;2.97;;
4102;SDS011;2065;49.790;9.620;2022-10-12T00:08:51;3.33;;;3.00;;
4102;SDS011;2065;49.790;9.620;2022-10-12T00:11:20;8.57;;;3.40;;
4102;SDS011;2065;49.790;9.620;2022-10-12T00:13:50;4.87;;;3.33;;
4102;SDS011;2065;49.790;9.620;2022-10-12T00:16:18;8.70;;;3.47;;
4102;SDS011;2065;49.790;9.620;2022-10-12T00:18:48;11.77;;;3.57;;
4102;SDS011;2065;49.790;9.620;2022-10-12T00:21:16;6.03;;;3.53;;
4102;SDS011;2065;49.790;9.620;2022-10-12T00:23:44;7.60;;;3.50;;
4102;SDS011;2065;49.790;9.620;2022-10-12T00:26:13;5.90;;;3.80;;
4102;SDS011;2065;49.790;9.620;2022-10-12T00:28:41;3.90;;;3.60;;
4102;SDS011;2065;49.790;9.620;2022-10-12T00:31:11;4.17;;;3.67;;
4102;SDS011;2065;49.790;9.620;2022-10-12T00:33:39;10.83;;;4.70;;
4102;SDS011;2065;49.790;9.620;2022-10-12T00:36:11;5.33;;;3.43;;
4102;SDS011;2065;49.790;9.620;2022-10-12T00:38:39;7.10;;;4.37;;
4102;SDS011;2065;49.790;9.620;2022-10-12T00:41:07;7.47;;;3.90;;
4102;SDS011;2065;49.790;9.620;2022-10-12T00:43:35;7.13;;;3.70;;
4102;SDS011;2065;49.790;9.620;2022-10-12T00:46:04;5.83;;;4.17;;
4102;SDS011;2065;49.790;9.620;2022-10-12T00:48:39;5.53;;;4.10;;
4102;SDS011;2065;49.790;9.620;2022-10-12T00:51:07;7.53;;;4.13;;
4102;SDS011;2065;49.790;9.620;2022-10-12T00:53:36;8.83;;;4.20;;
4102;SDS011;2065;49.790;9.620;2022-10-12T00:56:06;7.90;;;4.13;;
4102;SDS011;2065;49.790;9.620;2022-10-12T00:58:38;8.33;;;3.97;;
4102;SDS011;2065;49.790;9.620;2022-10-12T01:01:05;8.30;;;4.17;;
4102;SDS011;2065;49.790;9.620;2022-10-12T01:03:34;8.47;;;3.40;;
4102;SDS011;2065;49.790;9.620;2022-10-12T01:06:03;9.37;;;4.40;;
4102;SDS011;2065;49.790;9.620;2022-10-12T01:08:32;9.70;;;4.00;;
4102;SDS011;2065;49.790;9.620;2022-10-12T01:10:59;5.77;;;3.40;;
4102;SDS011;2065;49.790;9.620;2022-10-12T01:13:27;5.77;;;3.20;;
4102;SDS011;2065;49.790;9.620;2022-10-12T01:15:55;7.07;;;3.53;;
4102;SDS011;2065;49.790;9.620;2022-10-12T01:18:32;5.17;;;3.70;;
4102;SDS011;2065;49.790;9.620;2022-10-12T01:21:09;5.90;;;3.20;;
4102;SDS011;2065;49.790;9.620;2022-10-12T01:23:47;3.83;;;3.43;;
4102;SDS011;2065;49.790;9.620;2022-10-12T01:26:40;6.03;;;3.20;;
4102;SDS011;2065;49.790;9.620;2022-10-12T01:32:48;6.23;;;3.93;;
4102;SDS011;2065;49.790;9.620;2022-10-12T01:35:30;4.63;;;3.60;;
4102;SDS011;2065;49.790;9.620;2022-10-12T01:38:04;4.30;;;3.90;;
4102;SDS011;2065;49.790;9.620;2022-10-12T01:40:38;5.00;;;3.33;;
4102;SDS011;2065;49.790;9.620;2022-10-12T01:43:12;4.67;;;3.17;;
4102;SDS011;2065;49.790;9.620;2022-10-12T01:45:43;6.60;;;3.20;;
4102;SDS011;2065;49.790;9.620;2022-10-12T01:48:11;6.63;;;3.70;;
4102;SDS011;2065;49.790;9.620;2022-10-12T01:50:46;4.93;;;3.10;;
4102;SDS011;2065;49.790;9.620;2022-10-12T01:53:20;4.90;;;3.00;;
4102;SDS011;2065;49.790;9.620;2022-10-12T01:55:55;8.67;;;3.40;;
4102;SDS011;2065;49.790;9.620;2022-10-12T01:58:32;3.80;;;3.07;;
4102;SDS011;2065;49.790;9.620;2022-10-12T02:01:13;8.30;;;3.40;;
4102;SDS011;2065;49.790;9.620;2022-10-12T02:03:47;3.73;;;3.10;;
4102;SDS011;2065;49.790;9.620;2022-10-12T02:06:20;3.00;;;2.60;;
4102;SDS011;2065;49.790;9.620;2022-10-12T02:08:52;10.00;;;3.73;;
4102;SDS011;2065;49.790;9.620;2022-10-12T02:11:22;6.60;;;3.93;;
4102;SDS011;2065;49.790;9.620;2022-10-12T02:13:53;4.40;;;4.00;;
4102;SDS011;2065;49.790;9.620;2022-10-12T02:16:24;7.20;;;3.27;;
4102;SDS011;2065;49.790;9.620;2022-10-12T02:18:58;8.07;;;3.90;;
4102;SDS011;2065;49.790;9.620;2022-10-12T02:21:28;5.10;;;3.30;;
4102;SDS011;2065;49.790;9.620;2022-10-12T02:23:58;6.33;;;3.10;;
4102;SDS011;2065;49.790;9.620;2022-10-12T02:26:27;8.90;;;3.30;;
4102;SDS011;2065;49.790;9.620;2022-10-12T02:28:56;8.17;;;4.60;;
4102;SDS011;2065;49.790;9.620;2022-10-12T02:31:27;3.87;;;2.70;;
4102;SDS011;2065;49.790;9.620;2022-10-12T02:34:06;4.30;;;2.93;;
4102;SDS011;2065;49.790;9.620;2022-10-12T02:36:38;4.30;;;2.97;;
4102;SDS011;2065;49.790;9.620;2022-10-12T02:39:12;5.17;;;4.47;;
4102;SDS011;2065;49.790;9.620;2022-10-12T02:41:44;7.20;;;2.90;;
4102;SDS011;2065;49.790;9.620;2022-10-12T02:44:15;2.93;;;2.73;;
4102;SDS011;2065;49.790;9.620;2022-10-12T02:46:46;4.53;;;2.97;;
4102;SDS011;2065;49.790;9.620;2022-10-12T02:49:16;7.07;;;3.27;;
4102;SDS011;2065;49.790;9.620;2022-10-12T02:51:44;4.83;;;2.67;;
4102;SDS011;2065;49.790;9.620;2022-10-12T02:54:12;7.00;;;2.50;;
4102;SDS011;2065;49.790;9.620;2022-10-12T02:56:43;8.20;;;3.53;;
4102;SDS011;2065;49.790;9.620;2022-10-12T02:59:12;7.30;;;3.40;;
4102;SDS011;2065;49.790;9.620;2022-10-12T03:01:40;5.40;;;3.07;;
4102;SDS011;2065;49.790;9.620;2022-10-12T03:04:07;8.07;;;4.07;;
4102;SDS011;2065;49.790;9.620;2022-10-12T03:06:36;5.10;;;3.87;;
4102;SDS011;2065;49.790;9.620;2022-10-12T03:09:04;8.50;;;4.90;;
4102;SDS011;2065;49.790;9.620;2022-10-12T03:11:31;8.87;;;5.00;;
4102;SDS011;2065;49.790;9.620;2022-10-12T03:13:58;10.80;;;3.90;;
4102;SDS011;2065;49.790;9.620;2022-10-12T03:16:25;7.07;;;3.57;;
4102;SDS011;2065;49.790;9.620;2022-10-12T03:18:52;6.03;;;3.77;;
4102;SDS011;2065;49.790;9.620;2022-10-12T03:21:20;5.23;;;3.30;;
4102;SDS011;2065;49.790;9.620;2022-10-12T03:23:48;4.67;;;3.87;;
4102;SDS011;2065;49.790;9.620;2022-10-12T03:26:15;6.13;;;3.90;;
4102;SDS011;2065;49.790;9.620;2022-10-12T03:28:42;5.60;;;3.60;;
4102;SDS011;2065;49.790;9.620;2022-10-12T03:31:09;7.67;;;4.00;;
4102;SDS011;2065;49.790;9.620;2022-10-12T03:33:36;24.30;;;13.07;;
4102;SDS011;2065;49.790;9.620;2022-10-12T03:36:04;29.33;;;13.60;;
4102;SDS011;2065;49.790;9.620;2022-10-12T03:38:31;19.77;;;11.70;;
4102;SDS011;2065;49.790;9.620;2022-10-12T03:41:00;16.53;;;8.50;;
4102;SDS011;2065;49.790;9.620;2022-10-12T03:43:27;9.00;;;5.57;;
4102;SDS011;2065;49.790;9.620;2022-10-12T03:45:54;11.10;;;5.43;;
4102;SDS011;2065;49.790;9.620;2022-10-12T03:48:21;11.20;;;5.17;;
4102;SDS011;2065;49.790;9.620;2022-10-12T03:50:48;8.60;;;4.73;;
4102;SDS011;2065;49.790;9.620;2022-10-12T03:53:17;9.27;;;4.60;;
4102;SDS011;2065;49.790;9.620;2022-10-12T03:55:45;4.63;;;3.70;;
4102;SDS011;2065;49.790;9.620;2022-10-12T03:58:13;4.87;;;3.27;;
4102;SDS011;2065;49.790;9.620;2022-10-12T04:00:41;9.50;;;4.07;;
4102;SDS011;2065;49.790;9.620;2022-10-12T04:03:08;4.90;;;3.87;;
4102;SDS011;2065;49.790;9.620;2022-10-12T04:05:35;7.73;;;4.43;;
4102;SDS011;2065;49.790;9.620;2022-10-12T04:08:03;7.57;;;4.70;;
4102;SDS011;2065;49.790;9.620;2022-10-12T04:10:30;12.73;;;4.33;;
4102;SDS011;2065;49.790;9.620;2022-10-12T04:12:58;7.93;;;4.47;;
4102;SDS011;2065;49.790;9.620;2022-10-12T04:15:26;6.80;;;4.77;;
4102;SDS011;2065;49.790;9.620;2022-10-12T04:17:53;7.73;;;3.67;;
4102;SDS011;2065;49.790;9.620;2022-10-12T04:20:20;10.77;;;5.53;;
4102;SDS011;2065;49.790;9.620;2022-10-12T04:22:48;13.10;;;7.60;;
4102;SDS011;2065;49.790;9.620;2022-10-12T04:25:15;15.30;;;9.07;;
4102;SDS011;2065;49.790;9.620;2022-10-12T04:27:42;14.27;;;8.00;;
4102;SDS011;2065;49.790;9.620;2022-10-12T04:30:10;11.57;;;6.90;;
4102;SDS011;2065;49.790;9.620;2022-10-12T04:32:39;10.50;;;5.50;;
4102;SDS011;2065;49.790;9.620;2022-10-12T04:35:06;13.17;;;7.30;;
4102;SDS011;2065;49.790;9.620;2022-10-12T04:37:33;14.43;;;9.10;;
4102;SDS011;2065;49.790;9.620;2022-10-12T04:40:00;17.10;;;10.00;;
4102;SDS011;2065;49.790;9.620;2022-10-12T04:42:28;15.07;;;6.80;;
4102;SDS011;2065;49.790;9.620;2022-10-12T04:44:55;12.07;;;8.07;;
4102;SDS011;2065;49.790;9.620;2022-10-12T04:47:22;10.00;;;5.93;;
4102;SDS011;2065;49.790;9.620;2022-10-12T04:49:50;13.27;;;6.77;;
4102;SDS011;2065;49.790;9.620;2022-10-12T04:52:18;19.77;;;6.30;;
4102;SDS011;2065;49.790;9.620;2022-10-12T04:54:45;7.73;;;6.03;;
4102;SDS011;2065;49.790;9.620;2022-10-12T04:57:12;12.00;;;6.37;;
4102;SDS011;2065;49.790;9.620;2022-10-12T04:59:39;11.30;;;6.70;;
4102;SDS011;2065;49.790;9.620;2022-10-12T05:02:06;8.83;;;5.30;;
4102;SDS011;2065;49.790;9.620;2022-10-12T05:04:33;8.50;;;5.50;;
4102;SDS011;2065;49.790;9.620;2022-10-12T05:07:01;12.50;;;5.63;;
4102;SDS011;2065;49.790;9.620;2022-10-12T05:09:29;8.20;;;5.50;;
4102;SDS011;2065;49.790;9.620;2022-10-12T05:11:56;16.37;;;5.67;;
4102;SDS011;2065;49.790;9.620;2022-10-12T05:14:23;14.17;;;5.57;;
4102;SDS011;2065;49.790;9.620;2022-10-12T05:16:50;9.93;;;5.87;;
4102;SDS011;2065;49.790;9.620;2022-10-12T05:19:17;10.13;;;5.60;;
4102;SDS011;2065;49.790;9.620;2022-10-12T05:21:44;10.33;;;5.60;;
4102;SDS011;2065;49.790;9.620;2022-10-12T05:24:13;8.93;;;5.70;;
4102;SDS011;2065;49.790;9.620;2022-10-12T05:26:40;9.47;;;5.13;;
4102;SDS011;2065;49.790;9.620;2022-10-12T05:29:07;7.60;;;5.07;;
4102;SDS011;2065;49.790;9.620;2022-10-12T05:31:34;7.47;;;5.27;;
4102;SDS011;2065;49.790;9.620;2022-10-12T05:34:01;4.87;;;3.70;;
4102;SDS011;2065;49.790;9.620;2022-10-12T05:36:28;9.50;;;4.90;;
4102;SDS011;2065;49.790;9.620;2022-10-12T05:38:55;7.90;;;5.23;;
4102;SDS011;2065;49.790;9.620;2022-10-12T05:41:24;7.13;;;4.73;;
4102;SDS011;2065;49.790;9.620;2022-10-12T05:43:51;8.70;;;5.73;;
4102;SDS011;2065;49.790;9.620;2022-10-12T05:46:18;10.50;;;5.67;;
4102;SDS011;2065;49.790;9.620;2022-10-12T05:48:45;10.10;;;5.67;;
4102;SDS011;2065;49.790;9.620;2022-10-12T05:51:12;7.83;;;4.83;;
4102;SDS011;2065;49.790;9.620;2022-10-12T05:53:40;6.83;;;5.27;;
4102;SDS011;2065;49.790;9.620;2022-10-12T05:56:07;14.50;;;5.97;;
4102;SDS011;2065;49.790;9.620;2022-10-12T05:58:35;6.80;;;5.20;;
4102;SDS011;2065;49.790;9.620;2022-10-12T06:01:03;10.53;;;6.60;;
4102;SDS011;2065;49.790;9.620;2022-10-12T06:03:31;8.63;;;5.83;;
4102;SDS011;2065;49.790;9.620;2022-10-12T06:05:59;7.30;;;5.00;;
4102;SDS011;2065;49.790;9.620;2022-10-12T06:08:27;7.40;;;4.90;;
4102;SDS011;2065;49.790;9.620;2022-10-12T06:10:55;10.87;;;6.90;;
4102;SDS011;2065;49.790;9.620;2022-10-12T06:13:22;14.00;;;5.37;;
4102;SDS011;2065;49.790;9.620;2022-10-12T06:15:51;7.67;;;5.10;;
4102;SDS011;2065;49.790;9.620;2022-10-12T06:18:19;7.40;;;5.40;;
4102;SDS011;2065;49.790;9.620;2022-10-12T06:20:47;10.90;;;6.30;;
4102;SDS011;2065;49.790;9.620;2022-10-12T06:23:16;7.23;;;5.73;;
4102;SDS011;2065;49.790;9.620;2022-10-12T06:25:44;8.80;;;5.50;;
4102;SDS011;2065;49.790;9.620;2022-10-12T06:28:12;8.97;;;5.00;;
4102;SDS011;2065;49.790;9.620;2022-10-12T06:30:40;8.03;;;6.10;;
4102;SDS011;2065;49.790;9.620;2022-10-12T06:33:09;11.77;;;6.43;;
4102;SDS011;2065;49.790;9.620;2022-10-12T06:35:36;12.70;;;8.63;;
4102;SDS011;2065;49.790;9.620;2022-10-12T06:38:03;15.70;;;8.40;;
4102;SDS011;2065;49.790;9.620;2022-10-12T06:40:30;15.80;;;8.13;;
4102;SDS011;2065;49.790;9.620;2022-10-12T06:42:57;13.67;;;8.60;;
4102;SDS011;2065;49.790;9.620;2022-10-12T06:45:27;18.03;;;7.63;;
4102;SDS011;2065;49.790;9.620;2022-10-12T06:47:54;11.80;;;7.03;;
4102;SDS011;2065;49.790;9.620;2022-10-12T06:50:24;13.03;;;6.57;;
4102;SDS011;2065;49.790;9.620;2022-10-12T06:52:51;16.33;;;9.50;;
4102;SDS011;2065;49.790;9.620;2022-10-12T06:55:19;12.50;;;8.10;;
4102;SDS011;2065;49.790;9.620;2022-10-12T06:57:46;11.17;;;6.57;;
4102;SDS011;2065;49.790;9.620;2022-10-12T07:00:14;10.43;;;6.80;;
4102;SDS011;2065;49.790;9.620;2022-10-12T07:02:41;17.97;;;12.00;;
4102;SDS011;2065;49.790;9.620;2022-10-12T07:05:08;16.83;;;9.07;;
4102;SDS011;2065;49.790;9.620;2022-10-12T07:07:37;11.53;;;8.10;;
4102;SDS011;2065;49.790;9.620;2022-10-12T07:10:04;13.67;;;10.23;;
4102;SDS011;2065;49.790;9.620;2022-10-12T07:12:34;15.20;;;10.30;;
4102;SDS011;2065;49.790;9.620;2022-10-12T07:15:01;17.97;;;11.67;;
4102;SDS011;2065;49.790;9.620;2022-10-12T07:17:28;16.73;;;11.23;;
4102;SDS011;2065;49.790;9.620;2022-10-12T07:19:55;13.13;;;9.30;;
4102;SDS011;2065;49.790;9.620;2022-10-12T07:22:22;11.97;;;8.23;;
4102;SDS011;2065;49.790;9.620;2022-10-12T07:24:51;12.83;;;8.40;;
4102;SDS011;2065;49.790;9.620;2022-10-12T07:27:18;14.03;;;7.73;;
4102;SDS011;2065;49.790;9.620;2022-10-12T07:29:45;12.53;;;7.80;;
4102;SDS011;2065;49.790;9.620;2022-10-12T07:32:12;21.03;;;11.23;;
4102;SDS011;2065;49.790;9.620;2022-10-12T07:34:39;13.30;;;7.53;;
4102;SDS011;2065;49.790;9.620;2022-10-12T07:37:09;17.10;;;8.73;;
4102;SDS011;2065;49.790;9.620;2022-10-12T07:39:36;11.73;;;7.00;;
4102;SDS011;2065;49.790;9.620;2022-10-12T07:42:07;13.53;;;7.63;;
4102;SDS011;2065;49.790;9.620;2022-10-12T07:44:34;12.03;;;7.30;;
4102;SDS011;2065;49.790;9.620;2022-10-12T07:47:01;15.23;;;8.70;;
4102;SDS011;2065;49.790;9.620;2022-10-12T07:49:28;12.40;;;8.47;;
4102;SDS011;2065;49.790;9.620;2022-10-12T07:51:55;11.37;;;8.13;;
4102;SDS011;2065;49.790;9.620;2022-10-12T07:54:22;16.33;;;8.97;;
4102;SDS011;2065;49.790;9.620;2022-10-12T07:56:49;22.53;;;15.03;;
4102;SDS011;2065;49.790;9.620;2022-10-12T07:59:18;26.27;;;17.97;;
4102;SDS011;2065;49.790;9.620;2022-10-12T08:01:45;29.90;;;20.60;;
4102;SDS011;2065;49.790;9.620;2022-10-12T08:04:12;15.23;;;10.53;;
4102;SDS011;2065;49.790;9.620;2022-10-12T08:06:40;18.90;;;12.27;;
4102;SDS011;2065;49.790;9.620;2022-10-12T08:09:07;14.40;;;8.57;;
4102;SDS011;2065;49.790;9.620;2022-10-12T08:11:36;11.13;;;6.27;;
4102;SDS011;2065;49.790;9.620;2022-10-12T08:14:03;9.10;;;6.53;;
4102;SDS011;2065;49.790;9.620;2022-10-12T08:16:32;7.97;;;5.90;;
4102;SDS011;2065;49.790;9.620;2022-10-12T08:18:59;14.20;;;6.97;;
4102;SDS011;2065;49.790;9.620;2022-10-12T08:21:26;12.77;;;6.80;;
4102;SDS011;2065;49.790;9.620;2022-10-12T08:23:53;13.37;;;5.93;;
4102;SDS011;2065;49.790;9.620;2022-10-12T08:26:21;21.70;;;6.10;;
4102;SDS011;2065;49.790;9.620;2022-10-12T08:28:48;8.87;;;6.00;;
4102;SDS011;2065;49.790;9.620;2022-10-12T08:31:15;11.23;;;6.37;;
4102;SDS011;2065;49.790;9.620;2022-10-12T08:33:45;10.97;;;6.57;;
4102;SDS011;2065;49.790;9.620;2022-10-12T08:36:12;9.50;;;6.17;;
4102;SDS011;2065;49.790;9.620;2022-10-12T08:38:39;12.37;;;8.00;;
4102;SDS011;2065;49.790;9.620;2022-10-12T08:41:16;13.43;;;6.70;;
4102;SDS011;2065;49.790;9.620;2022-10-12T08:44:06;14.33;;;7.80;;
4102;SDS011;2065;49.790;9.620;2022-10-12T08:46:45;10.43;;;7.00;;
4102;SDS011;2065;49.790;9.620;2022-10-12T08:49:15;16.47;;;8.93;;
4102;SDS011;2065;49.790;9.620;2022-10-12T08:51:46;13.40;;;5.90;;
4102;SDS011;2065;49.790;9.620;2022-10-12T08:54:18;21.87;;;6.37;;
4102;SDS011;2065;49.790;9.620;2022-10-12T08:56:47;8.77;;;7.30;;
4102;SDS011;2065;49.790;9.620;2022-10-12T08:59:18;7.33;;;5.57;;
4102;SDS011;2065;49.790;9.620;2022-10-12T09:01:56;8.17;;;6.40;;
4102;SDS011;2065;49.790;9.620;2022-10-12T09:04:43;12.30;;;6.63;;
4102;SDS011;2065;49.790;9.620;2022-10-12T09:07:16;10.57;;;7.30;;
4102;SDS011;2065;49.790;9.620;2022-10-12T09:09:56;10.60;;;6.13;;
4102;SDS011;2065;49.790;9.620;2022-10-12T09:12:41;12.63;;;6.70;;
4102;SDS011;2065;49.790;9.620;2022-10-12T09:15:16;9.93;;;5.70;;
4102;SDS011;2065;49.790;9.620;2022-10-12T09:17:48;18.33;;;6.13;;
4102;SDS011;2065;49.790;9.620;2022-10-12T09:20:20;7.67;;;5.57;;
4102;SDS011;2065;49.790;9.620;2022-10-12T09:22:49;10.40;;;5.83;;
4102;SDS011;2065;49.790;9.620;2022-10-12T09:25:18;8.87;;;5.50;;
4102;SDS011;2065;49.790;9.620;2022-10-12T09:27:49;8.77;;;6.00;;
4102;SDS011;2065;49.790;9.620;2022-10-12T09:30:18;14.90;;;5.90;;
4102;SDS011;2065;49.790;9.620;2022-10-12T09:33:08;9.37;;;4.77;;
4102;SDS011;2065;49.790;9.620;2022-10-12T09:35:41;8.53;;;4.97;;
4102;SDS011;2065;49.790;9.620;2022-10-12T09:38:10;5.57;;;4.53;;
4102;SDS011;2065;49.790;9.620;2022-10-12T09:40:38;8.73;;;5.00;;
4102;SDS011;2065;49.790;9.620;2022-10-12T09:43:05;10.60;;;6.50;;
4102;SDS011;2065;49.790;9.620;2022-10-12T09:45:33;13.97;;;6.63;;
4102;SDS011;2065;49.790;9.620;2022-10-12T09:48:08;6.70;;;4.80;;
4102;SDS011;2065;49.790;9.620;2022-10-12T09:50:42;15.37;;;7.33;;
4102;SDS011;2065;49.790;9.620;2022-10-12T09:56:01;13.67;;;6.03;;
4102;SDS011;2065;49.790;9.620;2022-10-12T09:58:34;11.97;;;7.07;;
4102;SDS011;2065;49.790;9.620;2022-10-12T10:01:14;11.27;;;4.90;;
4102;SDS011;2065;49.790;9.620;2022-10-12T10:04:09;10.00;;;5.33;;
4102;SDS011;2065;49.790;9.620;2022-10-12T10:06:42;11.00;;;6.20;;
4102;SDS011;2065;49.790;9.620;2022-10-12T10:09:30;11.63;;;5.83;;
4102;SDS011;2065;49.790;9.620;2022-10-12T10:12:10;9.97;;;6.07;;
4102;SDS011;2065;49.790;9.620;2022-10-12T10:14:41;10.70;;;6.77;;
4102;SDS011;2065;49.790;9.620;2022-10-12T10:17:12;13.20;;;6.77;;
4102;SDS011;2065;49.790;9.620;2022-10-12T10:19:46;10.67;;;5.90;;
4102;SDS011;2065;49.790;9.620;2022-10-12T10:22:17;10.97;;;6.57;;
4102;SDS011;2065;49.790;9.620;2022-10-12T10:24:48;8.70;;;6.80;;
4102;SDS011;2065;49.790;9.620;2022-10-12T10:27:33;12.93;;;6.80;;
4102;SDS011;2065;49.790;9.620;2022-10-12T10:30:17;9.83;;;6.60;;
4102;SDS011;2065;49.790;9.620;2022-10-12T10:32:48;8.53;;;6.00;;
4102;SDS011;2065;49.790;9.620;2022-10-12T10:35:40;13.83;;;6.90;;
4102;SDS011;2065;49.790;9.620;2022-10-12T10:38:21;14.07;;;7.03;;
4102;SDS011;2065;49.790;9.620;2022-10-12T10:40:49;10.03;;;5.97;;
4102;SDS011;2065;49.790;9.620;2022-10-12T10:43:19;14.27;;;7.03;;
4102;SDS011;2065;49.790;9.620;2022-10-12T10:45:50;11.87;;;7.60;;
4102;SDS011;2065;49.790;9.620;2022-10-12T10:48:19;14.47;;;7.50;;
4102;SDS011;2065;49.790;9.620;2022-10-12T10:50:49;16.10;;;6.63;;
4102;SDS011;2065;49.790;9.620;2022-10-12T10:53:23;12.30;;;7.53;;
4102;SDS011;2065;49.790;9.620;2022-10-12T10:55:51;7.90;;;7.03;;
4102;SDS011;2065;49.790;9.620;2022-10-12T10:58:26;13.90;;;7.77;;
4102;SDS011;2065;49.790;9.620;2022-10-12T11:00:59;15.03;;;7.60;;
4102;SDS011;2065;49.790;9.620;2022-10-12T11:03:32;19.30;;;9.53;;
4102;SDS011;2065;49.790;9.620;2022-10-12T11:06:14;12.93;;;8.07;;
4102;SDS011;2065;49.790;9.620;2022-10-12T11:08:48;10.43;;;6.93;;
4102;SDS011;2065;49.790;9.620;2022-10-12T11:11:21;10.47;;;8.40;;
4102;SDS011;2065;49.790;9.620;2022-10-12T11:13:52;9.47;;;7.70;;
4102;SDS011;2065;49.790;9.620;2022-10-12T11:16:25;13.33;;;7.60;;
4102;SDS011;2065;49.790;9.620;2022-10-12T11:18:57;13.07;;;7.60;;
4102;SDS011;2065;49.790;9.620;2022-10-12T11:21:28;12.77;;;7.47;;
4102;SDS011;2065;49.790;9.620;2022-10-12T11:24:02;13.10;;;7.37;;
4102;SDS011;2065;49.790;9.620;2022-10-12T11:26:36;13.60;;;7.07;;
4102;SDS011;2065;49.790;9.620;2022-10-12T11:29:05;14.83;;;7.43;;
4102;SDS011;2065;49.790;9.620;2022-10-12T11:31:35;12.80;;;7.07;;
4102;SDS011;2065;49.790;9.620;2022-10-12T11:34:05;11.53;;;7.90;;
4102;SDS011;2065;49.790;9.620;2022-10-12T11:36:38;16.40;;;8.90;;
4102;SDS011;2065;49.790;9.620;2022-10-12T11:39:13;14.27;;;8.20;;
4102;SDS011;2065;49.790;9.620;2022-10-12T11:41:44;12.73;;;7.30;;
4102;SDS011;2065;49.790;9.620;2022-10-12T11:44:14;12.27;;;6.83;;
4102;SDS011;2065;49.790;9.620;2022-10-12T11:46:45;17.27;;;7.97;;
4102;SDS011;2065;49.790;9.620;2022-10-12T11:49:18;9.37;;;7.17;;
4102;SDS011;2065;49.790;9.620;2022-10-12T11:51:53;16.83;;;7.57;;
4102;SDS011;2065;49.790;9.620;2022-10-12T11:54:26;9.77;;;7.57;;
4102;SDS011;2065;49.790;9.620;2022-10-12T11:56:57;12.20;;;7.60;;
4102;SDS011;2065;49.790;9.620;2022-10-12T11:59:30;12.47;;;8.13;;
4102;SDS011;2065;49.790;9.620;2022-10-12T12:02:14;14.77;;;10.43;;
4102;SDS011;2065;49.790;9.620;2022-10-12T12:04:46;10.07;;;7.30;;
4102;SDS011;2065;49.790;9.620;2022-10-12T12:13:14;12.27;;;7.87;;
4102;SDS011;2065;49.790;9.620;2022-10-12T12:24:59;10.77;;;7.47;;
4102;SDS011;2065;49.790;9.620;2022-10-12T12:27:49;11.97;;;8.03;;
4102;SDS011;2065;49.790;9.620;2022-10-12T12:30:27;11.80;;;7.40;;
4102;SDS011;2065;49.790;9.620;2022-10-12T12:32:57;11.30;;;7.07;;
4102;SDS011;2065;49.790;9.620;2022-10-12T12:35:27;12.77;;;8.63;;
4102;SDS011;2065;49.790;9.620;2022-10-12T12:37:59;10.80;;;7.53;;
4102;SDS011;2065;49.790;9.620;2022-10-12T12:40:30;12.20;;;7.10;;
4102;SDS011;2065;49.790;9.620;2022-10-12T12:46:01;14.13;;;8.00;;
4102;SDS011;2065;49.790;9.620;2022-10-12T12:51:32;9.97;;;7.97;;
4102;SDS011;2065;49.790;9.620;2022-10-12T12:54:13;10.97;;;7.00;;
4102;SDS011;2065;49.790;9.620;2022-10-12T12:56:50;10.20;;;7.27;;
4102;SDS011;2065;49.790;9.620;2022-10-12T12:59:49;17.30;;;7.77;;
4102;SDS011;2065;49.790;9.620;2022-10-12T13:02:44;18.93;;;7.73;;
4102;SDS011;2065;49.790;9.620;2022-10-12T13:05:43;17.23;;;7.30;;
4102;SDS011;2065;49.790;9.620;2022-10-12T13:08:47;14.80;;;7.60;;
4102;SDS011;2065;49.790;9.620;2022-10-12T13:11:49;8.57;;;7.40;;
4102;SDS011;2065;49.790;9.620;2022-10-12T13:20:49;16.57;;;7.30;;
4102;SDS011;2065;49.790;9.620;2022-10-12T13:23:18;11.70;;;6.30;;
4102;SDS011;2065;49.790;9.620;2022-10-12T13:25:47;11.23;;;7.30;;
4102;SDS011;2065;49.790;9.620;2022-10-12T13:28:17;9.13;;;7.37;;
4102;SDS011;2065;49.790;9.620;2022-10-12T13:30:50;12.53;;;7.73;;
4102;SDS011;2065;49.790;9.620;2022-10-12T13:33:24;11.90;;;8.10;;
4102;SDS011;2065;49.790;9.620;2022-10-12T13:35:59;13.00;;;7.90;;
4102;SDS011;2065;49.790;9.620;2022-10-12T13:38:32;12.07;;;8.00;;
4102;SDS011;2065;49.790;9.620;2022-10-12T13:41:02;9.87;;;7.90;;
4102;SDS011;2065;49.790;9.620;2022-10-12T13:43:35;12.67;;;7.07;;
4102;SDS011;2065;49.790;9.620;2022-10-12T13:46:09;14.93;;;8.00;;
4102;SDS011;2065;49.790;9.620;2022-10-12T13:48:38;11.30;;;7.73;;
4102;SDS011;2065;49.790;9.620;2022-10-12T13:51:17;14.57;;;8.23;;
4102;SDS011;2065;49.790;9.620;2022-10-12T13:53:47;10.67;;;7.87;;
4102;SDS011;2065;49.790;9.620;2022-10-12T13:56:15;11.87;;;8.30;;
4102;SDS011;2065;49.790;9.620;2022-10-12T13:58:45;7.70;;;6.80;;
4102;SDS011;2065;49.790;9.620;2022-10-12T14:01:13;13.10;;;8.27;;
4102;SDS011;2065;49.790;9.620;2022-10-12T14:03:40;10.83;;;7.23;;
4102;SDS011;2065;49.790;9.620;2022-10-12T14:06:23;9.73;;;6.80;;
4102;SDS011;2065;49.790;9.620;2022-10-12T14:08:53;10.57;;;6.50;;
4102;SDS011;2065;49.790;9.620;2022-10-12T14:11:22;7.43;;;6.37;;
4102;SDS011;2065;49.790;9.620;2022-10-12T14:13:50;9.10;;;7.30;;
4102;SDS011;2065;49.790;9.620;2022-10-12T14:16:18;8.07;;;6.27;;
4102;SDS011;2065;49.790;9.620;2022-10-12T14:18:45;16.20;;;7.10;;
4102;SDS011;2065;49.790;9.620;2022-10-12T14:21:17;16.03;;;7.77;;
4102;SDS011;2065;49.790;9.620;2022-10-12T14:23:49;13.93;;;9.50;;
4102;SDS011;2065;49.790;9.620;2022-10-12T14:26:21;17.50;;;9.80;;
4102;SDS011;2065;49.790;9.620;2022-10-12T14:28:50;31.73;;;17.13;;
4102;SDS011;2065;49.790;9.620;2022-10-12T14:31:17;24.10;;;13.50;;
4102;SDS011;2065;49.790;9.620;2022-10-12T14:33:44;17.50;;;11.37;;
4102;SDS011;2065;49.790;9.620;2022-10-12T14:36:12;10.70;;;7.40;;
4102;SDS011;2065;49.790;9.620;2022-10-12T14:38:41;9.60;;;7.60;;
4102;SDS011;2065;49.790;9.620;2022-10-12T14:41:31;9.67;;;6.70;;
4102;SDS011;2065;49.790;9.620;2022-10-12T14:44:05;9.37;;;6.73;;
4102;SDS011;2065;49.790;9.620;2022-10-12T14:46:36;9.33;;;6.53;;
4102;SDS011;2065;49.790;9.620;2022-10-12T14:49:04;11.63;;;6.80;;
4102;SDS011;2065;49.790;9.620;2022-10-12T14:51:32;12.23;;;7.07;;
4102;SDS011;2065;49.790;9.620;2022-10-12T14:53:59;10.60;;;7.57;;
4102;SDS011;2065;49.790;9.620;2022-10-12T14:56:27;12.93;;;7.50;;
4102;SDS011;2065;49.790;9.620;2022-10-12T14:58:56;11.57;;;7.27;;
4102;SDS011;2065;49.790;9.620;2022-10-12T15:01:23;12.50;;;9.03;;
4102;SDS011;2065;49.790;9.620;2022-10-12T15:03:50;13.93;;;8.90;;
4102;SDS011;2065;49.790;9.620;2022-10-12T15:06:17;12.83;;;7.60;;
4102;SDS011;2065;49.790;9.620;2022-10-12T15:08:44;11.33;;;7.57;;
4102;SDS011;2065;49.790;9.620;2022-10-12T15:11:13;12.10;;;7.20;;
4102;SDS011;2065;49.790;9.620;2022-10-12T15:13:42;10.87;;;6.90;;
4102;SDS011;2065;49.790;9.620;2022-10-12T15:16:13;10.70;;;7.37;;
4102;SDS011;2065;49.790;9.620;2022-10-12T15:18:44;10.00;;;7.03;;
4102;SDS011;2065;49.790;9.620;2022-10-12T15:21:11;10.77;;;7.33;;
4102;SDS011;2065;49.790;9.620;2022-10-12T15:23:38;10.50;;;7.47;;
4102;SDS011;2065;49.790;9.620;2022-10-12T15:26:05;11.87;;;7.70;;
4102;SDS011;2065;49.790;9.620;2022-10-12T15:28:37;11.40;;;7.67;;
4102;SDS011;2065;49.790;9.620;2022-10-12T15:31:04;7.80;;;6.80;;
4102;SDS011;2065;49.790;9.620;2022-10-12T15:33:33;16.33;;;7.57;;
4102;SDS011;2065;49.790;9.620;2022-10-12T15:36:00;9.33;;;6.93;;
4102;SDS011;2065;49.790;9.620;2022-10-12T15:38:27;20.93;;;7.90;;
4102;SDS011;2065;49.790;9.620;2022-10-12T15:40:54;13.83;;;7.80;;
4102;SDS011;2065;49.790;9.620;2022-10-12T15:43:22;11.00;;;7.30;;
4102;SDS011;2065;49.790;9.620;2022-10-12T15:45:49;11.90;;;9.30;;
4102;SDS011;2065;49.790;9.620;2022-10-12T15:48:16;9.80;;;8.80;;
4102;SDS011;2065;49.790;9.620;2022-10-12T15:50:46;11.00;;;7.13;;
4102;SDS011;2065;49.790;9.620;2022-10-12T15:53:15;11.50;;;7.90;;
4102;SDS011;2065;49.790;9.620;2022-10-12T15:55:44;14.43;;;12.30;;
4102;SDS011;2065;49.790;9.620;2022-10-12T15:58:12;15.33;;;11.93;;
4102;SDS011;2065;49.790;9.620;2022-10-12T16:00:40;12.00;;;10.00;;
4102;SDS011;2065;49.790;9.620;2022-10-12T16:03:08;11.97;;;8.23;;